This is the latest recevied weather packets stored in our database for station/object SM7SJR-13. If no packets are shown the sender has not sent any weather packets the latest 10 day(s).
| Time | Temp. | Humidity | Pressure | Rain* | Wind** | Luminosity | Snow |
|---|---|---|---|---|---|---|---|
| 1778077803 | 10.56° C | 48% | 1011.6 hPa | 0 mm | - | 248 W/m² | - |
| 1778076904 | 10.56° C | 52% | 1011.6 hPa | 0 mm | - | 315 W/m² | - |
| 1778073304 | 11.11° C | 49% | 1011.4 hPa | 0 mm | - | 362 W/m² | - |
| 1778072404 | 11.11° C | 50% | 1011.4 hPa | 0 mm | - | 343 W/m² | - |
| 1778068804 | 10.56° C | 51% | 1011.8 hPa | 0 mm | - | 320 W/m² | - |
| 1778067004 | 11.11° C | 52% | 1011.9 hPa | 0 mm | - | 285 W/m² | - |
| 1778066104 | 11.11° C | 48% | 1012 hPa | 0 mm | - | 378 W/m² | - |
| 1778062504 | 11.67° C | 43% | 1011.9 hPa | 0 mm | - | 374 W/m² | - |
| 1778052604 | 10.56° C | 50% | 1011.9 hPa | 0 mm | - | 401 W/m² | - |
| 1778049004 | 10° C | 57% | 1011.8 hPa | 0 mm | - | 197 W/m² | - |
| 1778034605 | 1.67° C | 96% | 1011.1 hPa | 0 mm | - | 0 W/m² | - |
| 1778030104 | 0.56° C | 94% | 1010.5 hPa | 0 mm | - | 0 W/m² | - |
| 1778028303 | 0.56° C | 94% | 1010 hPa | 0 mm | - | 0 W/m² | - |
| 1778025604 | 1.11° C | 93% | 1010 hPa | 0 mm | - | 0 W/m² | - |
| 1778023804 | 2.22° C | 94% | 1010 hPa | 0 mm | - | 0 W/m² | - |
| 1777999504 | 13.89° C | 50% | 1007.3 hPa | 0 mm | - | 26 W/m² | - |
| 1777992304 | 17.78° C | 25% | 1007 hPa | 0 mm | - | 503 W/m² | - |
| 1777987811 | 16.67° C | 32% | 1007.1 hPa | 0 mm | - | 512 W/m² | - |
| 1777977904 | 16.67° C | 39% | 1007.3 hPa | 0 mm | - | 842 W/m² | - |
| 1777973404 | 16.11° C | 45% | 1007.3 hPa | 0 mm | - | 721 W/m² | - |
| 1777971604 | 15° C | 50% | 1007.3 hPa | 0 mm | - | 149 W/m² | - |
| 1777965304 | 12.78° C | 66% | 1007.5 hPa | 0 mm | - | 592 W/m² | - |
| 1777964404 | 12.78° C | 65% | 1007.5 hPa | 0 mm | - | 503 W/m² | - |
| 1777961705 | 11.11° C | 71% | 1007.4 hPa | 0 mm | - | 390 W/m² | - |
| 1777959904 | 10° C | 76% | 1007.4 hPa | 0 mm | - | 318 W/m² | - |
* Rain latest hour (hover to see other rain measurements)
** Current wind speed in m/s (hover to see current wind gust speed)